Time;durP1;ratioP1;P1;durP2;ratioP2;P2;SDS_P1;SDS_P2;PMS_P1;PMS_P2;Temp;Humidity;BMP_temperature;BMP_pressure;BME280_temperature;BME280_humidity;BME280_pressure;Samples;Min_cycle;Max_cycle;Signal;HPM_P1;HPM_P2
2022/09/22 00:01:17;;;;;;;1.15;0.60;;;;;;;24.40;40.26;101335.94;5071839;28;20033;-55
2022/09/22 00:03:47;;;;;;;0.80;0.57;;;;;;;24.64;41.38;101341.47;5069800;28;20036;-56
2022/09/22 00:06:38;;;;;;;1.90;0.70;;;;;;;23.91;41.86;101338.75;5072035;28;20028;-56
2022/09/22 00:09:07;;;;;;;2.05;0.80;;;;;;;23.97;42.79;101341.16;5071821;28;20036;-56
2022/09/22 00:11:37;;;;;;;1.63;0.80;;;;;;;23.73;42.93;101340.22;5072072;28;20025;-56
2022/09/22 00:14:15;;;;;;;0.93;0.50;;;;;;;23.54;43.77;101334.56;5072832;28;20036;-55
2022/09/22 00:16:50;;;;;;;1.83;0.70;;;;;;;23.70;42.88;101332.56;5070667;28;20028;-55
2022/09/22 00:19:22;;;;;;;3.03;0.70;;;;;;;23.78;42.13;101323.81;5088199;28;20091;-56
2022/09/22 00:21:49;;;;;;;2.80;0.70;;;;;;;23.41;42.67;101326.97;5091781;28;20028;-55
2022/09/22 00:24:17;;;;;;;4.15;0.80;;;;;;;23.27;44.48;101324.03;5091294;28;20387;-55
2022/09/22 00:26:44;;;;;;;4.40;0.80;;;;;;;23.36;44.48;101338.72;5092042;28;20372;-56
2022/09/22 00:29:11;;;;;;;1.23;0.55;;;;;;;23.35;44.21;101328.09;5091664;28;20021;-55
2022/09/22 00:31:39;;;;;;;3.17;1.00;;;;;;;23.40;43.16;101333.53;5091477;28;20484;-56
2022/09/22 00:34:07;;;;;;;3.67;0.90;;;;;;;23.49;43.18;101326.41;5091204;28;20484;-55
2022/09/22 00:36:34;;;;;;;2.67;0.88;;;;;;;23.45;42.24;101328.84;5091310;28;20024;-56
2022/09/22 00:39:00;;;;;;;3.13;0.70;;;;;;;23.55;43.50;101335.38;5074291;28;20055;-55
2022/09/22 00:41:35;;;;;;;3.45;1.25;;;;;;;23.13;47.12;101340.16;5070925;28;20037;-56
2022/09/22 00:44:26;;;;;;;2.42;1.13;;;;;;;22.63;48.63;101343.78;5071227;28;20032;-56
2022/09/22 00:47:00;;;;;;;7.03;1.33;;;;;;;22.47;48.17;101340.25;5071409;28;20055;-55
2022/09/22 00:49:42;;;;;;;2.15;0.80;;;;;;;22.71;46.09;101340.53;5071531;28;20021;-55
2022/09/22 00:52:10;;;;;;;3.85;0.82;;;;;;;23.01;44.32;101344.31;5071088;28;20055;-55
2022/09/22 00:54:38;;;;;;;3.85;1.02;;;;;;;22.93;44.40;101342.94;5071259;28;20032;-55
2022/09/22 00:57:16;;;;;;;4.15;0.88;;;;;;;23.07;44.16;101340.47;5075317;28;20021;-55
2022/09/22 00:59:45;;;;;;;1.65;0.85;;;;;;;22.98;44.75;101332.03;5091154;28;20024;-55
2022/09/22 01:02:11;;;;;;;3.67;1.60;;;;;;;23.04;45.74;101341.84;5089701;28;20119;-54
2022/09/22 01:04:38;;;;;;;1.70;0.70;;;;;;;23.13;45.50;101333.91;5094505;28;20032;-53
2022/09/22 01:07:06;;;;;;;2.45;0.88;;;;;;;23.07;46.46;101341.28;5095331;28;20073;-55
2022/09/22 01:09:33;;;;;;;2.67;1.05;;;;;;;22.91;47.58;101347.88;5095754;28;20020;-55
2022/09/22 01:12:03;;;;;;;2.88;1.08;;;;;;;22.82;47.52;101335.84;5111746;28;20062;-54
2022/09/22 01:14:39;;;;;;;4.53;1.13;;;;;;;22.36;48.12;101353.06;5094093;28;20376;-52
2022/09/22 01:17:43;;;;;;;3.17;1.17;;;;;;;22.54;48.35;101348.16;5093717;28;20020;-50
2022/09/22 01:20:16;;;;;;;3.22;1.08;;;;;;;22.58;48.85;101349.25;5082925;28;20441;-51
2022/09/22 01:23:08;;;;;;;1.00;0.70;;;;;;;22.25;48.59;101350.63;5094955;28;20107;-55
2022/09/22 01:26:10;;;;;;;2.38;0.85;;;;;;;22.28;49.18;101342.72;5095197;28;20413;-54
2022/09/22 01:28:45;;;;;;;5.65;1.17;;;;;;;22.26;49.17;101346.78;5094954;28;20031;-54
2022/09/22 01:31:57;;;;;;;3.25;0.93;;;;;;;22.05;49.60;101352.22;5094987;28;20036;-55
2022/09/22 01:34:31;;;;;;;2.55;1.20;;;;;;;21.91;50.26;101353.00;5083715;28;20127;-55
2022/09/22 01:37:16;;;;;;;3.78;1.35;;;;;;;21.85;51.21;101361.16;5074969;28;20025;-55
2022/09/22 01:40:08;;;;;;;4.90;1.60;;;;;;;21.81;51.67;101361.94;5075146;28;20145;-54
2022/09/22 01:42:45;;;;;;;3.70;1.58;;;;;;;21.12;53.89;101348.56;5074107;28;20039;-55
2022/09/22 01:45:23;;;;;;;3.30;1.65;;;;;;;21.08;54.69;101359.16;5074389;28;20116;-55
2022/09/22 01:47:58;;;;;;;3.17;1.30;;;;;;;21.01;55.43;101364.03;5074659;28;20025;-55
2022/09/22 01:50:29;;;;;;;3.10;2.00;;;;;;;21.22;54.31;101371.22;5074366;28;20032;-55
2022/09/22 01:53:02;;;;;;;3.17;1.45;;;;;;;21.16;54.68;101366.84;5074168;28;20119;-55
2022/09/22 01:55:37;;;;;;;5.43;1.60;;;;;;;21.20;54.57;101375.28;5074607;28;20187;-54
2022/09/22 01:58:14;;;;;;;;;;;;;;;20.78;55.60;101376.13;5074642;28;20032;-55
2022/09/22 02:00:46;;;;;;;5.18;1.65;;;;;;;20.73;56.09;101393.22;5074226;28;20293;-55
2022/09/22 02:03:25;;;;;;;4.45;2.10;;;;;;;20.36;57.21;101400.47;5074230;28;20036;-54
2022/09/22 02:06:01;;;;;;;2.85;1.90;;;;;;;20.05;59.03;101397.47;5074317;28;20473;-54
2022/09/22 02:08:49;;;;;;;7.18;1.73;;;;;;;19.95;59.77;101390.00;5074650;28;20020;-55
2022/09/22 02:11:17;;;;;;;4.97;1.77;;;;;;;19.74;60.71;101388.94;5072803;28;20028;-55
2022/09/22 02:13:45;;;;;;;4.07;2.00;;;;;;;19.45;61.97;101385.59;5072687;28;20013;-55
2022/09/22 02:16:15;;;;;;;4.00;2.00;;;;;;;19.37;62.52;101382.47;5074319;28;20029;-55
2022/09/22 02:19:11;;;;;;;5.25;1.92;;;;;;;18.99;63.34;101403.94;5072354;28;20129;-53
2022/09/22 02:21:39;;;;;;;8.50;3.80;;;;;;;19.17;62.89;101392.00;5076774;28;20064;-55
2022/09/22 02:24:06;;;;;;;6.25;2.35;;;;;;;19.43;61.77;101387.75;5094134;28;20392;-56
2022/09/22 02:26:35;;;;;;;6.47;2.53;;;;;;;19.44;61.73;101392.09;5091593;28;20039;-55
2022/09/22 02:29:08;;;;;;;5.70;2.00;;;;;;;19.65;61.47;101395.06;5090110;28;20489;-55
2022/09/22 02:31:38;;;;;;;3.88;2.33;;;;;;;19.75;60.77;101401.47;5090971;28;20186;-56
2022/09/22 02:34:05;;;;;;;4.80;2.20;;;;;;;19.81;60.53;101396.91;5093914;28;20021;-54
2022/09/22 02:36:56;;;;;;;4.22;1.90;;;;;;;19.64;61.09;101390.72;5106255;28;20027;-54
2022/09/22 02:39:33;;;;;;;5.40;2.17;;;;;;;19.73;60.75;101398.19;5073225;28;20082;-55
2022/09/22 02:42:23;;;;;;;9.65;2.42;;;;;;;19.63;61.14;101403.47;5072704;28;20032;-54
2022/09/22 02:45:00;;;;;;;5.60;2.17;;;;;;;19.81;61.20;101405.06;5092659;28;20127;-54
2022/09/22 02:47:56;;;;;;;5.85;2.60;;;;;;;19.85;60.56;101405.38;5093413;28;20047;-58
2022/09/22 02:50:25;;;;;;;7.25;1.98;;;;;;;19.73;61.04;101400.91;5091580;28;20028;-56
2022/09/22 02:52:56;;;;;;;4.18;2.00;;;;;;;19.79;60.52;101404.50;5091410;28;20514;-53
2022/09/22 02:55:23;;;;;;;6.13;2.13;;;;;;;19.73;61.14;101410.94;5081612;28;20189;-54
2022/09/22 02:57:49;;;;;;;5.82;2.58;;;;;;;19.94;60.46;101414.72;5092874;28;20023;-54
2022/09/22 03:00:15;;;;;;;6.50;2.42;;;;;;;19.87;60.36;101423.06;5086060;28;20032;-54
2022/09/22 03:02:42;;;;;;;4.10;1.90;;;;;;;19.90;60.51;101419.03;5092784;28;20020;-53
2022/09/22 03:05:08;;;;;;;5.25;2.42;;;;;;;19.78;60.80;101419.97;5093077;28;20381;-54
2022/09/22 03:07:34;;;;;;;3.85;2.17;;;;;;;19.55;61.09;101432.97;5089706;28;20345;-54
2022/09/22 03:10:01;;;;;;;6.10;2.30;;;;;;;19.62;61.02;101442.59;5101279;28;20028;-54
2022/09/22 03:12:27;;;;;;;4.82;2.08;;;;;;;19.83;60.44;101445.56;5095877;27;20026;-55
2022/09/22 03:14:53;;;;;;;4.85;2.30;;;;;;;19.61;60.94;101451.00;5078402;28;20115;-54
2022/09/22 03:17:19;;;;;;;6.95;2.25;;;;;;;19.56;61.14;101454.41;5092741;28;20034;-54
2022/09/22 03:19:45;;;;;;;6.53;2.33;;;;;;;19.57;61.18;101455.25;5092754;28;20477;-54
2022/09/22 03:22:12;;;;;;;4.25;2.00;;;;;;;19.42;61.48;101453.94;5092152;28;20020;-54
2022/09/22 03:24:38;;;;;;;5.82;2.55;;;;;;;19.74;60.52;101454.16;5092613;28;20055;-54
2022/09/22 03:27:04;;;;;;;8.93;2.70;;;;;;;19.83;60.24;101465.41;5100701;28;20114;-53
2022/09/22 03:29:30;;;;;;;3.92;2.13;;;;;;;19.36;61.33;101471.22;5113285;28;20531;-55
2022/09/22 03:31:56;;;;;;;7.05;2.53;;;;;;;19.17;62.15;101469.88;5112840;28;20063;-53
2022/09/22 03:34:23;;;;;;;3.65;2.08;;;;;;;19.29;59.81;101467.06;5098906;28;20027;-53
2022/09/22 03:36:49;;;;;;;4.13;1.80;;;;;;;19.17;59.08;101469.88;5092643;28;20059;-55
2022/09/22 03:39:15;;;;;;;4.82;1.95;;;;;;;18.91;59.08;101474.88;5092697;28;20024;-54
2022/09/22 03:41:41;;;;;;;2.85;1.88;;;;;;;19.08;58.60;101476.78;5090448;28;20055;-55
2022/09/22 03:44:08;;;;;;;5.18;1.65;;;;;;;18.88;59.50;101472.66;5092787;28;20027;-53
2022/09/22 03:46:34;;;;;;;3.35;1.75;;;;;;;18.90;59.46;101484.09;5076352;28;20047;-54
2022/09/22 03:49:02;;;;;;;4.88;1.58;;;;;;;18.82;59.54;101487.22;5090551;28;20024;-54
2022/09/22 03:51:28;;;;;;;5.22;2.20;;;;;;;18.76;59.88;101488.16;5092429;28;20479;-54
2022/09/22 03:53:54;;;;;;;3.88;2.13;;;;;;;18.61;60.71;101479.75;5091977;28;20111;-53
2022/09/22 03:56:20;;;;;;;7.10;1.83;;;;;;;18.50;61.00;101488.78;5092249;28;20027;-53
2022/09/22 03:58:46;;;;;;;2.25;1.50;;;;;;;18.45;61.30;101493.03;5091999;28;20016;-52
2022/09/22 04:01:14;;;;;;;7.32;2.53;;;;;;;18.33;62.29;101491.44;5092807;28;20492;-53
2022/09/22 04:03:40;;;;;;;2.53;1.67;;;;;;;18.09;63.02;101491.50;5112050;28;20036;-54
2022/09/22 04:06:07;;;;;;;4.65;2.00;;;;;;;18.27;62.69;101495.13;5112689;28;20055;-53
2022/09/22 04:08:33;;;;;;;3.92;2.10;;;;;;;17.93;63.32;101493.09;5112002;28;20061;-54
2022/09/22 04:11:00;;;;;;;5.05;2.22;;;;;;;17.97;63.48;101504.25;5112110;28;20023;-54
2022/09/22 04:13:26;;;;;;;3.05;2.00;;;;;;;18.10;62.92;101504.00;5103293;28;20025;-54
2022/09/22 04:15:53;;;;;;;4.32;2.03;;;;;;;18.04;63.55;101499.50;5071788;28;20016;-53
2022/09/22 04:18:19;;;;;;;4.22;1.92;;;;;;;18.18;62.81;101505.50;5094444;28;20031;-53
2022/09/22 04:20:45;;;;;;;5.90;2.20;;;;;;;18.18;62.62;101513.63;5112071;28;20048;-53
2022/09/22 04:23:13;;;;;;;4.70;2.10;;;;;;;18.10;63.57;101513.97;5111332;28;20103;-53
2022/09/22 04:25:39;;;;;;;3.78;2.05;;;;;;;18.17;62.96;101509.28;5112244;28;20173;-53
2022/09/22 04:28:06;;;;;;;5.40;2.08;;;;;;;18.01;63.75;101523.56;5112009;28;20028;-52
2022/09/22 04:30:34;;;;;;;3.78;1.95;;;;;;;17.71;64.92;101524.50;5111980;28;20108;-53
2022/09/22 04:33:00;;;;;;;3.42;1.77;;;;;;;17.84;64.04;101505.34;5111683;28;20027;-53
2022/09/22 04:35:27;;;;;;;4.90;2.10;;;;;;;18.05;63.38;101522.03;5110087;28;20115;-53
2022/09/22 04:37:55;;;;;;;5.18;2.00;;;;;;;18.01;63.58;101510.84;5090375;28;20015;-54
2022/09/22 04:40:22;;;;;;;3.58;1.75;;;;;;;18.04;63.60;101515.75;5111072;28;20031;-53
2022/09/22 04:42:49;;;;;;;5.35;2.13;;;;;;;18.11;63.01;101521.91;5110588;28;20456;-54
2022/09/22 04:45:16;;;;;;;4.57;2.10;;;;;;;18.15;63.07;101517.63;5107171;28;20046;-52
2022/09/22 04:47:50;;;;;;;4.10;2.10;;;;;;;17.66;64.17;101530.66;5110668;28;20391;-54
2022/09/22 04:50:17;;;;;;;4.47;2.22;;;;;;;16.94;66.69;101531.88;5102775;28;20023;-55
2022/09/22 04:52:49;;;;;;;4.15;2.00;;;;;;;16.39;68.38;101527.41;5111707;28;20126;-53
2022/09/22 04:55:17;;;;;;;5.72;2.33;;;;;;;16.09;69.42;101528.16;5112169;28;20048;-54
2022/09/22 04:57:51;;;;;;;4.72;1.90;;;;;;;16.52;67.69;101529.09;5111663;28;20030;-53
2022/09/22 05:00:19;;;;;;;5.78;2.63;;;;;;;16.26;68.84;101525.66;5106720;28;20055;-53
2022/09/22 05:02:45;;;;;;;4.68;2.08;;;;;;;16.12;69.53;101534.19;5111591;28;20020;-52
2022/09/22 05:05:12;;;;;;;4.78;2.20;;;;;;;15.94;69.93;101538.53;5111792;28;20059;-52
2022/09/22 05:07:46;;;;;;;4.43;2.17;;;;;;;16.09;69.56;101530.03;5111508;28;20089;-52
2022/09/22 05:10:14;;;;;;;6.43;2.40;;;;;;;16.16;69.24;101529.94;5112028;28;20027;-52
2022/09/22 05:12:43;;;;;;;4.53;2.08;;;;;;;16.43;68.08;101531.28;5111501;28;20061;-52
2022/09/22 05:15:12;;;;;;;9.50;2.75;;;;;;;16.07;69.51;101530.28;5079021;28;20044;-53
2022/09/22 05:17:50;;;;;;;4.45;2.25;;;;;;;16.18;69.28;101531.38;5108572;28;20476;-54
2022/09/22 05:20:16;;;;;;;8.25;2.10;;;;;;;15.82;70.67;101526.81;5111322;28;20082;-53
2022/09/22 05:22:43;;;;;;;6.88;2.38;;;;;;;15.41;71.96;101532.78;5111663;28;20145;-53
2022/09/22 05:25:12;;;;;;;4.30;2.00;;;;;;;15.56;71.74;101533.28;5111544;28;20122;-50
2022/09/22 05:27:52;;;;;;;11.88;2.85;;;;;;;15.80;70.57;101526.22;5112062;28;20032;-53
2022/09/22 05:30:20;;;;;;;6.13;1.88;;;;;;;15.76;70.61;101533.09;5111512;28;20475;-55
2022/09/22 05:32:48;;;;;;;4.40;2.08;;;;;;;15.92;70.30;101529.81;5109833;28;20027;-53
2022/09/22 05:35:17;;;;;;;4.00;2.42;;;;;;;15.50;71.38;101534.16;5109840;28;20051;-53
2022/09/22 05:37:45;;;;;;;4.65;2.13;;;;;;;15.87;69.98;101536.94;5111691;28;20055;-53
2022/09/22 05:40:12;;;;;;;7.53;2.50;;;;;;;16.14;69.32;101542.88;5107248;28;20039;-53
2022/09/22 05:42:46;;;;;;;4.20;2.20;;;;;;;16.22;68.53;101538.00;5110150;28;20387;-50
2022/09/22 05:45:13;;;;;;;4.53;2.20;;;;;;;16.31;68.01;101543.91;5089471;28;20484;-53
2022/09/22 05:47:40;;;;;;;5.65;1.85;;;;;;;16.40;67.36;101534.44;5091011;28;20055;-51
2022/09/22 05:50:07;;;;;;;5.88;2.17;;;;;;;16.35;67.64;101542.41;5092307;28;20028;-53
2022/09/22 05:52:34;;;;;;;5.20;1.98;;;;;;;16.46;67.40;101544.34;5093321;28;20447;-53
2022/09/22 05:55:00;;;;;;;4.00;1.83;;;;;;;16.49;66.82;101543.91;5094671;28;20488;-53
2022/09/22 05:57:26;;;;;;;3.47;1.85;;;;;;;16.51;66.26;101549.88;5094749;28;20110;-52
2022/09/22 05:59:53;;;;;;;5.85;2.28;;;;;;;16.25;67.72;101550.22;5095229;28;20376;-51
2022/09/22 06:02:20;;;;;;;3.95;2.25;;;;;;;16.05;68.33;101550.47;5094262;28;20028;-51
2022/09/22 06:04:47;;;;;;;5.18;2.22;;;;;;;15.88;69.07;101554.78;5094237;28;20042;-51
2022/09/22 06:07:13;;;;;;;6.85;2.17;;;;;;;16.15;67.63;101548.03;5094953;28;20024;-52
2022/09/22 06:09:39;;;;;;;5.20;1.85;;;;;;;16.09;67.61;101549.75;5094241;28;20039;-50
2022/09/22 06:12:07;;;;;;;9.32;2.55;;;;;;;15.03;71.53;101558.78;5089676;28;20024;-53
2022/09/22 06:14:33;;;;;;;5.72;2.20;;;;;;;14.60;73.07;101560.50;5094297;28;20027;-50
2022/09/22 06:17:00;;;;;;;4.15;2.15;;;;;;;14.86;71.96;101557.66;5094402;28;20423;-51
2022/09/22 06:19:28;;;;;;;7.28;2.25;;;;;;;14.98;71.46;101552.41;5072278;28;20051;-49
2022/09/22 06:21:54;;;;;;;3.35;1.80;;;;;;;15.00;71.11;101559.25;5073528;28;20047;-52
2022/09/22 06:24:22;;;;;;;8.13;2.40;;;;;;;14.67;72.07;101569.41;5073556;28;20061;-50
2022/09/22 06:26:49;;;;;;;7.20;2.33;;;;;;;14.19;74.10;101564.38;5073698;28;20033;-50
2022/09/22 06:29:16;;;;;;;5.65;2.10;;;;;;;14.22;73.99;101566.66;5073480;28;20052;-50
2022/09/22 06:31:42;;;;;;;5.03;1.98;;;;;;;13.86;75.43;101562.59;5084660;28;20099;-49
2022/09/22 06:34:10;;;;;;;5.75;2.10;;;;;;;13.85;75.56;101569.03;5094429;28;20015;-48
2022/09/22 06:36:37;;;;;;;3.25;2.30;;;;;;;14.00;75.26;101563.41;5093766;28;20459;-50
2022/09/22 06:39:04;;;;;;;3.55;2.53;;;;;;;14.22;74.14;101567.47;5093460;28;20028;-51
2022/09/22 06:41:32;;;;;;;3.17;1.98;;;;;;;13.93;74.94;101567.94;5093497;28;20031;-49
2022/09/22 06:43:59;;;;;;;5.20;2.10;;;;;;;13.75;75.95;101571.31;5093774;28;20055;-49
2022/09/22 06:46:31;;;;;;;6.25;2.10;;;;;;;13.78;76.20;101570.06;5093602;28;20024;-49
2022/09/22 06:48:58;;;;;;;6.53;2.47;;;;;;;13.65;76.43;101565.50;5093136;28;20400;-50
2022/09/22 06:51:25;;;;;;;4.38;2.42;;;;;;;13.62;76.56;101571.31;5104709;28;20495;-50
2022/09/22 06:53:55;;;;;;;8.45;2.70;;;;;;;13.61;76.39;101572.38;5114014;28;20035;-51
2022/09/22 06:56:23;;;;;;;5.60;2.47;;;;;;;13.52;76.64;101562.84;5113715;28;20024;-51
2022/09/22 06:58:50;;;;;;;3.03;2.20;;;;;;;13.84;75.44;101570.06;5114022;28;20030;-51
2022/09/22 07:01:17;;;;;;;4.10;2.00;;;;;;;14.05;74.63;101560.91;5112577;28;20464;-50
2022/09/22 07:03:45;;;;;;;5.32;2.47;;;;;;;13.94;75.05;101562.38;5109238;28;20039;-50
2022/09/22 07:06:16;;;;;;;3.03;1.98;;;;;;;13.72;75.83;101567.19;5097794;28;20031;-52
2022/09/22 07:08:42;;;;;;;3.00;2.38;;;;;;;13.96;75.04;101565.69;5072986;28;20020;-52
2022/09/22 07:11:09;;;;;;;3.72;2.30;;;;;;;14.09;74.38;101564.81;5100051;28;20064;-50
2022/09/22 07:13:38;;;;;;;7.22;2.35;;;;;;;13.85;75.42;101570.88;5113267;28;20031;-50
2022/09/22 07:16:16;;;;;;;5.88;2.97;;;;;;;13.68;75.83;101567.81;5113163;28;20046;-51
2022/09/22 07:18:45;;;;;;;5.18;2.80;;;;;;;14.05;74.45;101571.69;5111750;28;20465;-50
2022/09/22 07:21:19;;;;;;;4.07;2.47;;;;;;;14.12;74.18;101571.66;5109039;28;20491;-51
2022/09/22 07:23:48;;;;;;;7.43;2.13;;;;;;;14.18;73.72;101570.81;5113036;28;20044;-50
2022/09/22 07:26:17;;;;;;;4.53;2.30;;;;;;;14.21;73.41;101565.84;5113022;28;20060;-50
2022/09/22 07:28:45;;;;;;;4.88;2.35;;;;;;;14.20;73.60;101568.72;5112983;28;20043;-52
2022/09/22 07:31:14;;;;;;;5.05;2.20;;;;;;;14.03;73.93;101567.53;5108564;28;20027;-49
2022/09/22 07:33:42;;;;;;;3.65;2.05;;;;;;;14.13;73.58;101567.91;5110413;28;20122;-51
2022/09/22 07:36:20;;;;;;;5.38;2.47;;;;;;;14.29;73.18;101570.16;5112666;28;20039;-49
2022/09/22 07:38:49;;;;;;;3.67;2.15;;;;;;;14.46;72.41;101565.94;5113067;28;20066;-48
2022/09/22 07:41:18;;;;;;;3.50;2.25;;;;;;;13.92;74.40;101563.63;5112515;28;20375;-50
2022/09/22 07:43:44;;;;;;;4.95;2.13;;;;;;;13.60;75.97;101559.94;5112656;28;20164;-49
2022/09/22 07:46:14;;;;;;;4.45;2.90;;;;;;;13.33;77.54;101568.03;5112370;28;20096;-49
2022/09/22 07:48:46;;;;;;;6.18;2.47;;;;;;;13.27;77.92;101565.31;5111529;28;20110;-49
2022/09/22 07:51:20;;;;;;;5.13;2.83;;;;;;;13.19;78.32;101569.00;5112105;28;20472;-48
2022/09/22 07:54:13;;;;;;;8.25;3.00;;;;;;;13.11;78.90;101559.28;5112671;28;20111;-51
2022/09/22 07:56:41;;;;;;;2.83;2.13;;;;;;;13.10;79.00;101568.41;5112360;28;20050;-50
2022/09/22 07:59:10;;;;;;;9.32;2.85;;;;;;;13.19;78.45;101567.16;5112848;28;20027;-53
2022/09/22 08:01:40;;;;;;;5.88;2.97;;;;;;;13.23;78.76;101566.78;5106708;28;20030;-50
2022/09/22 08:04:11;;;;;;;4.00;2.45;;;;;;;13.46;77.86;101572.56;5112596;28;20031;-50
2022/09/22 08:06:37;;;;;;;5.75;2.33;;;;;;;13.60;77.12;101568.00;5091642;28;20099;-51
2022/09/22 08:09:05;;;;;;;4.28;2.10;;;;;;;13.40;78.02;101565.34;5112232;28;20471;-52
2022/09/22 08:11:31;;;;;;;4.38;2.20;;;;;;;13.31;78.79;101564.69;5111852;28;20022;-51
2022/09/22 08:14:00;;;;;;;6.50;2.85;;;;;;;13.22;79.07;101568.66;5112091;28;20114;-51
2022/09/22 08:16:32;;;;;;;5.15;2.83;;;;;;;13.31;78.90;101561.19;5093512;28;20020;-50
2022/09/22 08:19:01;;;;;;;8.40;2.83;;;;;;;13.20;79.46;101562.59;5073789;28;20070;-50
2022/09/22 08:21:34;;;;;;;4.93;2.80;;;;;;;13.29;78.88;101561.41;5085491;28;20035;-50
2022/09/22 08:24:04;;;;;;;4.45;2.75;;;;;;;13.23;79.23;101564.91;5071623;28;20441;-51
2022/09/22 08:26:30;;;;;;;7.55;3.00;;;;;;;13.16;79.34;101556.81;5106944;28;20414;-50
2022/09/22 08:28:57;;;;;;;5.82;2.80;;;;;;;13.41;78.91;101559.75;5111963;28;20417;-50
2022/09/22 08:31:25;;;;;;;4.75;3.05;;;;;;;13.26;79.54;101566.34;5112024;28;20031;-53
2022/09/22 08:33:54;;;;;;;9.80;3.20;;;;;;;13.03;79.94;101566.72;5112258;28;20023;-50
2022/09/22 08:36:21;;;;;;;5.13;2.80;;;;;;;13.01;80.09;101563.41;5107209;28;20058;-50
2022/09/22 08:38:48;;;;;;;5.32;2.45;;;;;;;13.17;79.11;101569.22;5077181;28;20035;-52
2022/09/22 08:41:38;;;;;;;7.78;2.83;;;;;;;12.93;79.76;101567.09;5111732;28;20019;-53
2022/09/22 08:44:09;;;;;;;4.43;2.95;;;;;;;12.90;79.73;101564.84;5110858;28;20106;-51
2022/09/22 08:46:42;;;;;;;7.43;2.97;;;;;;;12.76;80.56;101563.13;5071636;28;20048;-50
2022/09/22 08:52:55;;;;;;;6.20;2.80;;;;;;;12.80;80.96;101565.22;5111538;28;20081;-51
2022/09/22 08:55:23;;;;;;;7.28;3.05;;;;;;;12.93;80.53;101567.94;5112102;28;20034;-50
2022/09/22 08:58:31;;;;;;;6.88;3.17;;;;;;;13.13;79.34;101567.16;5106014;28;20128;-51
2022/09/22 09:01:13;;;;;;;4.72;2.42;;;;;;;12.99;79.16;101577.03;5028953;28;20048;-50
2022/09/22 09:04:05;;;;;;;4.78;2.47;;;;;;;12.74;79.89;101566.03;5107479;28;20074;-50
2022/09/22 09:06:41;;;;;;;5.97;2.70;;;;;;;12.59;80.83;101573.41;5088030;28;20033;-50
2022/09/22 09:09:20;;;;;;;3.70;2.40;;;;;;;12.64;80.86;101581.69;5091023;28;20056;-52
2022/09/22 09:12:12;;;;;;;6.72;2.72;;;;;;;12.49;81.68;101581.00;5082392;28;20548;-50
2022/09/22 09:15:00;;;;;;;8.93;3.05;;;;;;;12.46;81.91;101586.81;5047485;28;20098;-51
2022/09/22 09:17:34;;;;;;;6.82;2.85;;;;;;;12.46;82.07;101586.81;5071560;28;20484;-50
2022/09/22 09:20:22;;;;;;;8.65;3.17;;;;;;;12.52;82.14;101589.50;5071258;28;20407;-51
2022/09/22 09:22:55;;;;;;;6.45;3.10;;;;;;;12.48;82.39;101595.47;5100751;28;20118;-50
2022/09/22 09:25:41;;;;;;;5.20;3.25;;;;;;;12.49;82.13;101592.59;5113782;28;20085;-50
2022/09/22 09:28:12;;;;;;;9.30;2.80;;;;;;;12.42;82.20;101586.38;5074696;28;20036;-51
2022/09/22 09:30:49;;;;;;;6.20;2.92;;;;;;;12.34;82.42;101586.53;5079539;28;20111;-50
2022/09/22 09:33:51;;;;;;;8.73;3.00;;;;;;;12.38;82.49;101594.00;5095160;28;20101;-51
2022/09/22 09:36:21;;;;;;;5.47;3.00;;;;;;;12.45;82.29;101593.22;5084637;28;20036;-50
2022/09/22 09:38:53;;;;;;;5.38;2.70;;;;;;;12.40;82.37;101596.47;5096084;28;20037;-50
2022/09/22 09:41:31;;;;;;;6.72;3.20;;;;;;;12.36;82.42;101604.09;5115257;28;20036;-49
2022/09/22 09:43:59;;;;;;;3.58;2.67;;;;;;;12.30;82.56;101601.38;5115186;28;20034;-52
2022/09/22 09:46:51;;;;;;;7.22;2.90;;;;;;;12.27;82.57;101610.69;5115449;28;20085;-50
2022/09/22 09:49:19;;;;;;;4.25;2.78;;;;;;;12.24;82.56;101602.19;5115242;28;20581;-49
2022/09/22 09:51:50;;;;;;;6.32;2.65;;;;;;;12.23;82.67;101613.94;5114888;28;20058;-52
2022/09/22 09:54:18;;;;;;;4.68;2.80;;;;;;;12.24;82.69;101612.91;5111223;28;20219;-53
2022/09/22 09:57:08;;;;;;;6.38;2.95;;;;;;;12.20;82.88;101615.16;5111571;28;20031;-51
2022/09/22 10:02:49;;;;;;;5.72;3.28;;;;;;;12.09;83.28;101608.47;5104268;28;20091;-50
2022/09/22 10:05:15;;;;;;;7.97;3.15;;;;;;;12.11;83.64;101605.63;5082001;28;20039;-50
2022/09/22 10:07:48;;;;;;;10.45;3.55;;;;;;;12.18;83.50;101606.50;5074087;28;20032;-50
2022/09/22 10:10:36;;;;;;;6.72;2.95;;;;;;;12.21;83.61;101607.94;5073863;28;20097;-51
2022/09/22 10:13:05;;;;;;;6.25;3.38;;;;;;;12.38;83.02;101599.38;5073607;28;20119;-50
2022/09/22 10:15:37;;;;;;;6.32;3.05;;;;;;;12.29;83.17;101608.63;5076834;28;20522;-51
2022/09/22 10:18:22;;;;;;;8.25;2.95;;;;;;;12.37;82.61;101604.91;5073876;28;20039;-50
2022/09/22 10:21:14;;;;;;;4.75;3.20;;;;;;;12.48;82.45;101604.34;5073480;28;20504;-51
2022/09/22 10:23:45;;;;;;;7.55;2.90;;;;;;;12.40;82.17;101604.53;5068005;28;20102;-52
2022/09/22 10:26:26;;;;;;;4.97;2.65;;;;;;;12.31;82.32;101605.72;5073898;28;20037;-50
2022/09/22 10:29:16;;;;;;;6.93;2.70;;;;;;;12.43;81.48;101607.63;5073780;28;20029;-50
2022/09/22 10:32:01;;;;;;;4.43;2.22;;;;;;;12.72;80.47;101607.56;5086269;28;20062;-50
2022/09/22 10:34:37;;;;;;;5.75;3.08;;;;;;;12.54;80.59;101610.78;5114098;28;20109;-50
2022/09/22 10:37:10;;;;;;;5.68;2.90;;;;;;;12.61;80.14;101608.97;5114109;28;20103;-51
2022/09/22 10:39:50;;;;;;;5.70;2.78;;;;;;;12.50;80.35;101605.00;5114160;28;20030;-51
2022/09/22 10:42:44;;;;;;;5.32;2.42;;;;;;;12.53;80.05;101599.22;5110947;27;20136;-50
2022/09/22 10:45:15;;;;;;;8.10;3.10;;;;;;;12.53;81.27;101599.22;5114094;28;20081;-52
2022/09/22 10:47:50;;;;;;;5.80;2.92;;;;;;;12.58;80.99;101604.81;5104229;28;20510;-53
2022/09/22 10:50:58;;;;;;;8.47;3.50;;;;;;;12.77;80.03;101608.63;5078527;28;20028;-50
2022/09/22 10:53:47;;;;;;;4.20;2.80;;;;;;;12.84;79.80;101601.41;5030843;28;20278;-49
2022/09/22 10:56:19;;;;;;;6.10;3.17;;;;;;;13.02;79.25;101600.00;5072696;28;20029;-52
2022/09/22 10:59:06;;;;;;;6.20;3.20;;;;;;;13.06;78.87;101598.56;5091358;28;20095;-53
2022/09/22 11:01:56;;;;;;;3.40;2.78;;;;;;;13.09;78.95;101600.84;5082240;28;20073;-53
2022/09/22 11:04:56;;;;;;;6.75;3.22;;;;;;;13.06;79.16;101599.41;5072856;28;20040;-53
2022/09/22 11:14:26;;;;;;;6.03;3.15;;;;;;;13.14;79.93;101599.19;5072236;28;20036;-53
2022/09/22 11:17:18;;;;;;;6.15;3.13;;;;;;;13.15;79.66;101598.16;5074324;28;20024;-52
2022/09/22 11:20:08;;;;;;;8.27;3.20;;;;;;;13.02;79.79;101594.63;5092543;28;20040;-53
2022/09/22 11:22:55;;;;;;;6.60;3.13;;;;;;;13.03;79.42;101596.28;5093038;28;20032;-50
2022/09/22 11:25:56;;;;;;;6.10;3.53;;;;;;;13.10;79.50;101600.66;5092745;28;20035;-48
2022/09/22 11:28:33;;;;;;;8.43;3.83;;;;;;;12.87;81.57;101600.97;5061481;28;20043;-51
2022/09/22 11:30:59;;;;;;;9.90;3.88;;;;;;;12.88;81.34;101602.66;5087547;28;20013;-53
2022/09/22 11:34:09;;;;;;;8.75;3.85;;;;;;;12.53;83.01;101618.00;5092568;28;20385;-50
2022/09/22 11:37:24;;;;;;;6.55;3.67;;;;;;;12.61;82.65;101617.03;5092506;28;20052;-50
2022/09/22 11:39:50;;;;;;;7.15;3.35;;;;;;;12.46;83.53;101617.16;5099290;28;20031;-49
2022/09/22 11:42:33;;;;;;;7.70;3.67;;;;;;;12.53;83.61;101614.50;5103256;28;20020;-51
2022/09/22 11:45:27;;;;;;;8.23;3.58;;;;;;;12.80;81.94;101616.25;5072169;28;20033;-50
2022/09/22 11:48:05;;;;;;;10.80;3.75;;;;;;;12.56;82.42;101625.69;5070904;28;20111;-52
2022/09/22 11:50:42;;;;;;;6.13;3.67;;;;;;;12.31;83.91;101627.19;5092330;28;20060;-50
2022/09/22 11:53:32;;;;;;;6.25;3.78;;;;;;;12.23;84.70;101635.44;5092033;28;20153;-50
2022/09/22 11:56:49;;;;;;;10.85;3.72;;;;;;;12.32;84.40;101636.91;5099639;28;20027;-49
2022/09/22 11:59:15;;;;;;;;;;;;;;;12.47;83.47;101636.78;5066669;28;20076;-50
2022/09/22 12:01:42;;;;;;;6.82;3.35;;;;;;;12.33;83.31;101635.91;5112054;28;20307;-51
2022/09/22 12:04:28;;;;;;;6.70;3.30;;;;;;;12.23;83.65;101641.63;5108090;28;20055;-50
2022/09/22 12:06:57;;;;;;;7.63;3.10;;;;;;;11.97;85.12;101642.25;5112442;28;20036;-50
2022/09/22 12:09:55;;;;;;;6.35;3.78;;;;;;;11.90;85.77;101641.41;5108091;28;20024;-51